Time;durP1;ratioP1;P1;durP2;ratioP2;P2;SDS_P1;SDS_P2;PMS_P1;PMS_P2;Temp;Humidity;BMP_temperature;BMP_pressure;BME280_temperature;BME280_humidity;BME280_pressure;Samples;Min_cycle;Max_cycle;Signal;HPM_P1;HPM_P2
2023/08/08 00:01:50;;;;;;;;;;;19.90;43.50;;;;;;1511395;77;758;-57
2023/08/08 00:03:52;;;;;;;;;;;19.90;43.50;;;;;;1516582;77;745;-54
2023/08/08 00:05:54;;;;;;;;;;;19.90;43.60;;;;;;1505020;77;715;-55
2023/08/08 00:07:56;;;;;;;;;;;19.90;43.60;;;;;;1510326;77;1922;-54
2023/08/08 00:09:58;;;;;;;;;;;19.90;43.50;;;;;;1518700;77;1154;-56
2023/08/08 00:12:00;;;;;;;;;;;19.90;43.50;;;;;;1497183;78;665;-54
2023/08/08 00:14:01;;;;;;;;;;;19.90;43.50;;;;;;1505798;78;854;-57
2023/08/08 00:16:03;;;;;;;;;;;19.90;43.60;;;;;;1496727;77;724;-54
2023/08/08 00:18:05;;;;;;;;;;;19.90;43.50;;;;;;1512445;78;760;-56
2023/08/08 00:20:08;;;;;;;;;;;19.90;43.60;;;;;;1488946;78;1118;-54
2023/08/08 00:22:09;;;;;;;;;;;19.90;43.50;;;;;;1512371;77;686;-57
2023/08/08 00:24:11;;;;;;;;;;;19.90;43.60;;;;;;1498390;77;900;-55
2023/08/08 00:26:13;;;;;;;;;;;19.90;43.50;;;;;;1512311;77;785;-54
2023/08/08 00:28:15;;;;;;;;;;;19.90;43.50;;;;;;1489562;78;1954;-56
2023/08/08 00:30:17;;;;;;;;;;;19.90;43.50;;;;;;1505914;77;1136;-56
2023/08/08 00:32:19;;;;;;;;;;;19.90;43.40;;;;;;1500028;78;752;-54
2023/08/08 00:34:21;;;;;;;;;;;19.90;43.40;;;;;;1494149;78;745;-55
2023/08/08 00:36:23;;;;;;;;;;;19.90;43.50;;;;;;1494946;78;1337;-55
2023/08/08 00:38:24;;;;;;;;;;;19.90;43.40;;;;;;1497508;77;1149;-55
2023/08/08 00:40:26;;;;;;;;;;;19.90;43.40;;;;;;1508579;77;786;-54
2023/08/08 00:42:28;;;;;;;;;;;19.90;43.40;;;;;;1500759;78;752;-57
2023/08/08 00:44:30;;;;;;;;;;;19.90;43.30;;;;;;1495287;78;815;-56
2023/08/08 00:46:32;;;;;;;;;;;19.90;43.30;;;;;;1502974;77;752;-57
2023/08/08 00:48:34;;;;;;;;;;;19.90;43.30;;;;;;1497625;77;1953;-57
2023/08/08 00:50:36;;;;;;;;;;;19.90;43.30;;;;;;1499143;78;786;-56
2023/08/08 00:52:39;;;;;;;;;;;19.90;43.30;;;;;;1497626;77;935;-56
2023/08/08 00:54:41;;;;;;;;;;;19.90;43.20;;;;;;1501837;78;763;-56
2023/08/08 00:56:43;;;;;;;;;;;19.90;43.30;;;;;;1502929;78;801;-56
2023/08/08 00:58:50;;;;;;;;;;;19.90;43.30;;;;;;1497826;77;1179;-55
2023/08/08 01:00:54;;;;;;;;;;;20.00;43.20;;;;;;1496914;77;1639;-57
2023/08/08 01:02:55;;;;;;;;;;;19.90;43.20;;;;;;1497999;78;1604;-57
2023/08/08 01:04:57;;;;;;;;;;;19.90;43.30;;;;;;1491546;78;773;-56
2023/08/08 01:07:00;;;;;;;;;;;19.90;43.10;;;;;;1486274;78;767;-54
2023/08/08 01:09:04;;;;;;;;;;;19.90;43.10;;;;;;1503004;77;1942;-54
2023/08/08 01:11:06;;;;;;;;;;;19.90;43.10;;;;;;1493733;78;795;-56
2023/08/08 01:13:10;;;;;;;;;;;19.90;43.00;;;;;;1489634;78;859;-56
2023/08/08 01:15:12;;;;;;;;;;;19.90;43.00;;;;;;1502592;78;1583;-56
2023/08/08 01:17:13;;;;;;;;;;;19.90;43.00;;;;;;1503379;78;663;-56
2023/08/08 01:19:17;;;;;;;;;;;19.90;42.80;;;;;;1501607;77;1111;-55
2023/08/08 01:21:19;;;;;;;;;;;19.90;42.80;;;;;;1498745;77;1646;-57
2023/08/08 01:23:28;;;;;;;;;;;19.90;42.80;;;;;;1498850;77;724;-57
2023/08/08 01:25:30;;;;;;;;;;;19.90;42.80;;;;;;1497823;77;778;-57
2023/08/08 01:27:32;;;;;;;;;;;19.90;42.80;;;;;;1503130;78;689;-57
2023/08/08 01:29:34;;;;;;;;;;;19.80;42.70;;;;;;1493376;77;1938;-55
2023/08/08 01:31:36;;;;;;;;;;;19.80;42.80;;;;;;1485603;78;767;-55
2023/08/08 01:33:38;;;;;;;;;;;19.90;42.80;;;;;;1501023;78;1456;-55
2023/08/08 01:35:40;;;;;;;;;;;19.90;42.80;;;;;;1506388;78;720;-55
2023/08/08 01:37:43;;;;;;;;;;;19.90;42.80;;;;;;1500703;77;767;-56
2023/08/08 01:39:46;;;;;;;;;;;19.90;42.70;;;;;;1509079;78;1117;-56
2023/08/08 01:41:47;;;;;;;;;;;19.90;42.70;;;;;;1488368;78;927;-56
2023/08/08 01:43:49;;;;;;;;;;;19.80;42.60;;;;;;1500423;78;750;-56
2023/08/08 01:45:51;;;;;;;;;;;19.90;42.70;;;;;;1508500;77;655;-54
2023/08/08 01:47:54;;;;;;;;;;;19.90;42.80;;;;;;1491375;77;788;-53
2023/08/08 01:49:56;;;;;;;;;;;19.90;42.70;;;;;;1502622;77;1929;-56
2023/08/08 01:51:58;;;;;;;;;;;19.80;42.50;;;;;;1505922;77;714;-54
2023/08/08 01:54:00;;;;;;;;;;;19.80;42.60;;;;;;1501911;78;725;-54
2023/08/08 01:56:02;;;;;;;;;;;19.90;42.70;;;;;;1492720;78;726;-55
2023/08/08 01:58:04;;;;;;;;;;;19.90;42.50;;;;;;1503486;77;747;-54
2023/08/08 02:00:07;;;;;;;;;;;19.80;42.50;;;;;;1499335;77;1132;-56
2023/08/08 02:02:09;;;;;;;;;;;19.80;42.60;;;;;;1511481;78;1025;-56
2023/08/08 02:04:11;;;;;;;;;;;19.90;42.60;;;;;;1497517;78;668;-56
2023/08/08 02:06:13;;;;;;;;;;;19.80;42.50;;;;;;1501219;77;713;-54
2023/08/08 02:08:15;;;;;;;;;;;19.90;42.70;;;;;;1500095;77;1944;-53
2023/08/08 02:10:17;;;;;;;;;;;19.90;42.60;;;;;;1493823;78;1136;-57
2023/08/08 02:12:19;;;;;;;;;;;19.80;42.60;;;;;;1495770;78;736;-53
2023/08/08 02:14:21;;;;;;;;;;;19.80;42.50;;;;;;1495987;78;717;-55
2023/08/08 02:16:22;;;;;;;;;;;19.80;42.50;;;;;;1499690;77;1056;-55
2023/08/08 02:18:24;;;;;;;;;;;19.80;42.60;;;;;;1499605;77;1132;-56
2023/08/08 02:20:26;;;;;;;;;;;19.90;42.60;;;;;;1506240;77;795;-53
2023/08/08 02:22:28;;;;;;;;;;;19.80;42.50;;;;;;1500158;77;660;-57
2023/08/08 02:24:30;;;;;;;;;;;19.80;42.30;;;;;;1504739;78;744;-56
2023/08/08 02:26:32;;;;;;;;;;;19.80;42.40;;;;;;1504366;78;792;-56
2023/08/08 02:28:34;;;;;;;;;;;19.90;42.40;;;;;;1506595;77;1959;-55
2023/08/08 02:30:35;;;;;;;;;;;19.80;42.40;;;;;;1497770;77;794;-56
2023/08/08 02:32:37;;;;;;;;;;;19.90;42.40;;;;;;1513939;78;710;-55
2023/08/08 02:34:39;;;;;;;;;;;19.80;42.50;;;;;;1496780;78;787;-55
2023/08/08 02:36:41;;;;;;;;;;;19.90;42.50;;;;;;1490483;77;808;-55
2023/08/08 02:38:43;;;;;;;;;;;19.90;42.60;;;;;;1494972;78;1159;-53
2023/08/08 02:40:45;;;;;;;;;;;19.90;42.40;;;;;;1489678;77;840;-54
2023/08/08 02:42:47;;;;;;;;;;;19.90;42.30;;;;;;1502595;78;742;-56
2023/08/08 02:44:49;;;;;;;;;;;19.80;42.30;;;;;;1501240;78;758;-55
2023/08/08 02:46:51;;;;;;;;;;;19.80;42.30;;;;;;1492902;78;764;-56
2023/08/08 02:48:53;;;;;;;;;;;19.80;42.30;;;;;;1506940;77;1946;-56
2023/08/08 02:50:54;;;;;;;;;;;19.90;42.40;;;;;;1509694;77;696;-55
2023/08/08 02:52:57;;;;;;;;;;;19.90;42.40;;;;;;1498143;77;766;-54
2023/08/08 02:54:59;;;;;;;;;;;19.90;42.40;;;;;;1509819;77;828;-53
2023/08/08 02:57:01;;;;;;;;;;;19.90;42.50;;;;;;1509169;77;712;-57
2023/08/08 02:59:02;;;;;;;;;;;19.90;42.40;;;;;;1507539;78;1206;-55
2023/08/08 03:01:04;;;;;;;;;;;19.90;42.40;;;;;;1508801;77;794;-57
2023/08/08 03:03:06;;;;;;;;;;;19.90;42.30;;;;;;1489124;78;744;-55
2023/08/08 03:05:08;;;;;;;;;;;19.80;42.30;;;;;;1496460;78;738;-56
2023/08/08 03:07:10;;;;;;;;;;;19.90;42.30;;;;;;1506770;77;701;-57
2023/08/08 03:09:12;;;;;;;;;;;19.90;42.30;;;;;;1494910;77;1955;-55
2023/08/08 03:11:14;;;;;;;;;;;19.90;42.40;;;;;;1511383;77;821;-54
2023/08/08 03:13:16;;;;;;;;;;;19.80;42.30;;;;;;1498948;78;771;-55
2023/08/08 03:15:18;;;;;;;;;;;19.90;42.30;;;;;;1501746;78;811;-57
2023/08/08 03:17:20;;;;;;;;;;;19.90;42.40;;;;;;1499199;78;718;-57
2023/08/08 03:19:22;;;;;;;;;;;19.90;42.40;;;;;;1497448;77;1101;-54
2023/08/08 03:21:24;;;;;;;;;;;19.90;42.40;;;;;;1504425;77;792;-56
2023/08/08 03:23:26;;;;;;;;;;;19.90;42.30;;;;;;1512295;78;771;-57
2023/08/08 03:25:27;;;;;;;;;;;19.90;42.40;;;;;;1508104;78;1314;-53
2023/08/08 03:27:29;;;;;;;;;;;19.90;42.40;;;;;;1498711;77;766;-57
2023/08/08 03:29:31;;;;;;;;;;;19.90;42.50;;;;;;1499095;77;1949;-54
2023/08/08 03:31:33;;;;;;;;;;;19.90;42.40;;;;;;1504118;77;675;-57
2023/08/08 03:33:35;;;;;;;;;;;19.90;42.40;;;;;;1504528;78;719;-53
2023/08/08 03:35:37;;;;;;;;;;;19.90;42.40;;;;;;1502712;77;844;-55
2023/08/08 03:37:39;;;;;;;;;;;19.90;42.40;;;;;;1498024;78;804;-57
2023/08/08 03:39:40;;;;;;;;;;;19.90;42.40;;;;;;1505325;77;1121;-55
2023/08/08 03:41:42;;;;;;;;;;;19.90;42.50;;;;;;1500601;78;923;-55
2023/08/08 03:43:44;;;;;;;;;;;19.90;42.40;;;;;;1501339;78;742;-54
2023/08/08 03:45:47;;;;;;;;;;;19.90;42.40;;;;;;1493818;78;756;-55
2023/08/08 03:47:49;;;;;;;;;;;19.90;42.40;;;;;;1499829;77;881;-54
2023/08/08 03:49:51;;;;;;;;;;;19.80;42.30;;;;;;1509301;77;1958;-54
2023/08/08 03:51:52;;;;;;;;;;;19.80;42.40;;;;;;1513367;77;712;-57
2023/08/08 03:53:54;;;;;;;;;;;19.90;42.60;;;;;;1512393;77;784;-56
2023/08/08 03:55:56;;;;;;;;;;;19.90;42.50;;;;;;1492834;78;790;-55
2023/08/08 03:57:58;;;;;;;;;;;19.80;42.50;;;;;;1502118;78;700;-57
2023/08/08 04:00:00;;;;;;;;;;;19.90;42.50;;;;;;1485987;78;1155;-56
2023/08/08 04:02:02;;;;;;;;;;;19.90;42.60;;;;;;1512714;77;718;-53
2023/08/08 04:04:05;;;;;;;;;;;19.90;42.60;;;;;;1499784;78;805;-55
2023/08/08 04:06:07;;;;;;;;;;;19.90;42.60;;;;;;1501403;77;724;-56
2023/08/08 04:08:09;;;;;;;;;;;19.90;42.60;;;;;;1506110;78;796;-54
2023/08/08 04:10:11;;;;;;;;;;;19.90;42.60;;;;;;1497487;77;1952;-55
2023/08/08 04:12:13;;;;;;;;;;;19.90;42.60;;;;;;1497631;78;695;-54
2023/08/08 04:14:14;;;;;;;;;;;19.90;42.70;;;;;;1490123;78;710;-54
2023/08/08 04:16:16;;;;;;;;;;;19.90;42.60;;;;;;1498561;78;942;-56
2023/08/08 04:18:18;;;;;;;;;;;19.90;42.60;;;;;;1510777;77;755;-56
2023/08/08 04:20:20;;;;;;;;;;;19.90;42.60;;;;;;1508878;77;800;-57
2023/08/08 04:22:22;;;;;;;;;;;19.90;42.70;;;;;;1492413;77;1298;-56
2023/08/08 04:24:24;;;;;;;;;;;19.90;42.60;;;;;;1504698;78;732;-55
2023/08/08 04:26:26;;;;;;;;;;;19.90;42.60;;;;;;1498481;78;788;-56
2023/08/08 04:28:28;;;;;;;;;;;19.90;42.70;;;;;;1498056;77;1123;-55
2023/08/08 04:30:30;;;;;;;;;;;19.90;42.80;;;;;;1513116;77;1952;-54
2023/08/08 04:32:31;;;;;;;;;;;19.90;42.70;;;;;;1496634;78;725;-56
2023/08/08 04:34:33;;;;;;;;;;;19.90;42.80;;;;;;1501343;77;733;-55
2023/08/08 04:36:35;;;;;;;;;;;19.90;42.70;;;;;;1490928;77;776;-55
2023/08/08 04:38:37;;;;;;;;;;;19.90;42.70;;;;;;1493379;77;1094;-54
2023/08/08 04:40:39;;;;;;;;;;;19.90;42.70;;;;;;1505100;78;767;-55
2023/08/08 04:42:41;;;;;;;;;;;20.00;42.60;;;;;;1497014;78;949;-54
2023/08/08 04:44:43;;;;;;;;;;;20.00;42.70;;;;;;1505414;78;771;-54
2023/08/08 04:46:45;;;;;;;;;;;19.90;42.60;;;;;;1487720;78;823;-53
2023/08/08 04:48:47;;;;;;;;;;;19.90;42.60;;;;;;1505900;77;1111;-56
2023/08/08 04:50:49;;;;;;;;;;;19.90;42.60;;;;;;1495444;77;1939;-55
2023/08/08 04:52:50;;;;;;;;;;;19.90;42.60;;;;;;1495438;78;809;-57
2023/08/08 04:54:52;;;;;;;;;;;19.90;42.60;;;;;;1501635;78;777;-54
2023/08/08 04:56:54;;;;;;;;;;;19.90;42.70;;;;;;1500450;78;706;-55
2023/08/08 04:58:56;;;;;;;;;;;19.90;42.60;;;;;;1494151;77;1123;-56
2023/08/08 05:00:58;;;;;;;;;;;19.90;42.70;;;;;;1502197;77;747;-54
2023/08/08 05:03:00;;;;;;;;;;;19.90;42.70;;;;;;1489150;78;871;-54
2023/08/08 05:05:03;;;;;;;;;;;19.90;42.70;;;;;;1495681;78;865;-55
2023/08/08 05:07:05;;;;;;;;;;;19.90;42.70;;;;;;1487824;77;734;-54
2023/08/08 05:09:09;;;;;;;;;;;19.90;42.70;;;;;;1483683;78;1234;-55
2023/08/08 05:11:11;;;;;;;;;;;19.90;42.70;;;;;;1487561;78;1927;-55
2023/08/08 05:13:13;;;;;;;;;;;20.00;42.60;;;;;;1492294;78;816;-57
2023/08/08 05:15:15;;;;;;;;;;;19.90;42.70;;;;;;1514093;78;759;-56
2023/08/08 05:17:17;;;;;;;;;;;20.00;42.60;;;;;;1495362;77;1406;-57
2023/08/08 05:19:18;;;;;;;;;;;19.90;42.60;;;;;;1501251;77;1106;-56
2023/08/08 05:21:21;;;;;;;;;;;19.90;42.60;;;;;;1500228;77;728;-56
2023/08/08 05:23:23;;;;;;;;;;;19.90;42.60;;;;;;1502514;78;755;-55
2023/08/08 05:25:25;;;;;;;;;;;20.00;42.50;;;;;;1500934;78;838;-55
2023/08/08 05:27:27;;;;;;;;;;;19.90;42.60;;;;;;1502291;78;795;-57
2023/08/08 05:29:29;;;;;;;;;;;20.00;42.70;;;;;;1502089;77;1957;-56
2023/08/08 05:31:31;;;;;;;;;;;20.00;42.60;;;;;;1496229;77;611;-55
2023/08/08 05:33:32;;;;;;;;;;;20.00;42.60;;;;;;1501869;77;784;-54
2023/08/08 05:35:34;;;;;;;;;;;19.90;42.60;;;;;;1505166;78;675;-57
2023/08/08 05:37:36;;;;;;;;;;;19.90;42.60;;;;;;1497662;78;742;-56
2023/08/08 05:39:38;;;;;;;;;;;20.00;42.60;;;;;;1510975;77;1102;-56
2023/08/08 05:41:40;;;;;;;;;;;20.00;42.60;;;;;;1502619;78;793;-55
2023/08/08 05:43:42;;;;;;;;;;;19.90;42.60;;;;;;1502003;78;696;-56
2023/08/08 05:45:44;;;;;;;;;;;20.00;42.50;;;;;;1504403;78;691;-57
2023/08/08 05:47:46;;;;;;;;;;;20.00;42.40;;;;;;1503956;77;705;-56
2023/08/08 05:49:48;;;;;;;;;;;20.10;42.50;;;;;;1512298;77;1941;-55
2023/08/08 05:51:50;;;;;;;;;;;20.30;42.30;;;;;;1514357;77;711;-55
2023/08/08 05:53:52;;;;;;;;;;;20.30;42.20;;;;;;1498540;78;737;-54
2023/08/08 05:55:54;;;;;;;;;;;20.40;42.10;;;;;;1503089;78;736;-55
2023/08/08 05:57:56;;;;;;;;;;;20.40;41.90;;;;;;1504339;78;707;-56
2023/08/08 05:59:58;;;;;;;;;;;20.50;41.90;;;;;;1510144;77;1153;-56
2023/08/08 06:01:59;;;;;;;;;;;20.50;41.70;;;;;;1492386;77;821;-57
2023/08/08 06:04:01;;;;;;;;;;;20.60;41.60;;;;;;1495674;78;840;-53
2023/08/08 06:06:03;;;;;;;;;;;20.60;41.40;;;;;;1495717;78;766;-53
2023/08/08 06:08:07;;;;;;;;;;;20.70;41.50;;;;;;1501186;77;751;-54
2023/08/08 06:10:09;;;;;;;;;;;20.70;41.60;;;;;;1493694;78;1947;-56
2023/08/08 06:12:11;;;;;;;;;;;20.70;41.70;;;;;;1498489;78;803;-57
2023/08/08 06:14:13;;;;;;;;;;;20.70;41.50;;;;;;1508729;78;1520;-57
2023/08/08 06:16:15;;;;;;;;;;;20.70;41.60;;;;;;1497716;77;900;-56
2023/08/08 06:18:17;;;;;;;;;;;20.70;41.60;;;;;;1499054;77;735;-54
2023/08/08 06:20:19;;;;;;;;;;;20.70;41.60;;;;;;1490146;78;1113;-55
2023/08/08 06:22:21;;;;;;;;;;;20.80;41.60;;;;;;1489108;77;803;-57
2023/08/08 06:24:23;;;;;;;;;;;20.80;41.50;;;;;;1504069;78;748;-56
2023/08/08 06:26:25;;;;;;;;;;;20.80;41.20;;;;;;1507191;78;735;-55
2023/08/08 06:28:27;;;;;;;;;;;20.80;41.30;;;;;;1496213;78;1169;-56
2023/08/08 06:30:29;;;;;;;;;;;20.80;41.30;;;;;;1501395;77;1953;-56
2023/08/08 06:32:31;;;;;;;;;;;20.90;41.30;;;;;;1502263;77;819;-55
2023/08/08 06:34:33;;;;;;;;;;;20.90;41.40;;;;;;1510860;78;767;-54
2023/08/08 06:36:35;;;;;;;;;;;20.90;41.30;;;;;;1496220;78;783;-57
2023/08/08 06:38:37;;;;;;;;;;;21.00;41.30;;;;;;1499638;77;1087;-56
2023/08/08 06:40:38;;;;;;;;;;;21.00;41.20;;;;;;1501459;78;784;-55
2023/08/08 06:42:40;;;;;;;;;;;21.00;40.90;;;;;;1489492;78;819;-55
2023/08/08 06:44:43;;;;;;;;;;;21.10;40.80;;;;;;1493962;78;685;-55
2023/08/08 06:46:45;;;;;;;;;;;21.10;40.70;;;;;;1511534;77;788;-56
2023/08/08 06:48:47;;;;;;;;;;;21.10;41.00;;;;;;1507164;77;1189;-55
2023/08/08 06:50:49;;;;;;;;;;;21.00;41.10;;;;;;1503521;77;1905;-55
2023/08/08 06:52:51;;;;;;;;;;;21.10;40.70;;;;;;1507461;78;797;-57
2023/08/08 06:54:53;;;;;;;;;;;21.10;40.50;;;;;;1501994;78;665;-56
2023/08/08 06:56:56;;;;;;;;;;;21.00;40.80;;;;;;1500642;78;743;-55
2023/08/08 06:58:58;;;;;;;;;;;21.10;40.90;;;;;;1513619;78;1161;-55
2023/08/08 07:01:00;;;;;;;;;;;21.10;40.80;;;;;;1505650;77;768;-57
2023/08/08 07:03:02;;;;;;;;;;;21.00;40.90;;;;;;1500064;78;764;-57
2023/08/08 07:05:04;;;;;;;;;;;21.00;40.70;;;;;;1493005;78;750;-57
2023/08/08 07:07:06;;;;;;;;;;;21.00;40.70;;;;;;1504177;78;809;-57
2023/08/08 07:09:10;;;;;;;;;;;21.00;40.80;;;;;;1497989;78;1161;-55
2023/08/08 07:11:12;;;;;;;;;;;20.90;41.00;;;;;;1497998;77;1933;-55
2023/08/08 07:13:15;;;;;;;;;;;21.00;41.20;;;;;;1512705;78;734;-55
2023/08/08 07:15:17;;;;;;;;;;;20.90;41.00;;;;;;1506242;77;771;-57
2023/08/08 07:17:19;;;;;;;;;;;20.90;41.10;;;;;;1512237;77;921;-55
2023/08/08 07:19:21;;;;;;;;;;;21.00;41.40;;;;;;1503529;78;1109;-55
2023/08/08 07:21:22;;;;;;;;;;;20.90;41.30;;;;;;1506592;77;777;-54
2023/08/08 07:23:24;;;;;;;;;;;21.00;41.10;;;;;;1496729;78;773;-55
2023/08/08 07:25:26;;;;;;;;;;;21.00;41.10;;;;;;1513915;78;776;-55
2023/08/08 07:27:28;;;;;;;;;;;21.00;41.20;;;;;;1508433;78;789;-54
2023/08/08 07:29:30;;;;;;;;;;;21.00;41.10;;;;;;1505825;77;1083;-56
2023/08/08 07:31:32;;;;;;;;;;;21.00;41.20;;;;;;1496988;77;1917;-56
2023/08/08 07:33:34;;;;;;;;;;;21.00;41.30;;;;;;1497146;78;915;-57
2023/08/08 07:35:36;;;;;;;;;;;21.00;41.30;;;;;;1491691;78;793;-55
2023/08/08 07:37:38;;;;;;;;;;;21.00;41.10;;;;;;1498308;78;685;-55
2023/08/08 07:39:40;;;;;;;;;;;21.00;41.10;;;;;;1508211;77;1143;-55
2023/08/08 07:41:42;;;;;;;;;;;21.00;41.00;;;;;;1512646;78;659;-56
2023/08/08 07:43:44;;;;;;;;;;;21.00;40.90;;;;;;1506709;78;791;-55
2023/08/08 07:45:46;;;;;;;;;;;21.00;41.10;;;;;;1499013;77;727;-55
2023/08/08 07:47:48;;;;;;;;;;;20.90;41.20;;;;;;1497631;77;713;-55
2023/08/08 07:49:50;;;;;;;;;;;20.90;41.10;;;;;;1495895;77;1123;-56
2023/08/08 07:51:51;;;;;;;;;;;21.00;41.00;;;;;;1501116;77;1954;-55
2023/08/08 07:53:53;;;;;;;;;;;21.00;41.10;;;;;;1507129;78;710;-56
2023/08/08 07:55:55;;;;;;;;;;;21.00;41.20;;;;;;1491366;78;737;-54
2023/08/08 07:57:57;;;;;;;;;;;21.00;41.10;;;;;;1485328;78;697;-56
2023/08/08 08:00:00;;;;;;;;;;;21.00;41.10;;;;;;1491363;77;1171;-57
2023/08/08 08:02:02;;;;;;;;;;;21.00;41.20;;;;;;1499693;78;1092;-54
2023/08/08 08:04:04;;;;;;;;;;;21.00;41.10;;;;;;1498361;78;789;-55
2023/08/08 08:06:06;;;;;;;;;;;21.00;41.10;;;;;;1496927;78;1513;-54
2023/08/08 08:08:08;;;;;;;;;;;21.00;41.20;;;;;;1490166;77;789;-56
2023/08/08 08:10:12;;;;;;;;;;;21.00;41.00;;;;;;1490679;78;1131;-54
2023/08/08 08:12:14;;;;;;;;;;;21.00;41.10;;;;;;1491613;78;1973;-55
2023/08/08 08:14:16;;;;;;;;;;;21.00;41.20;;;;;;1490329;78;789;-55
2023/08/08 08:16:18;;;;;;;;;;;21.00;41.30;;;;;;1503860;77;819;-57
2023/08/08 08:18:20;;;;;;;;;;;20.90;41.30;;;;;;1509032;77;1147;-56
2023/08/08 08:20:22;;;;;;;;;;;21.00;41.30;;;;;;1494743;78;750;-56
2023/08/08 08:22:24;;;;;;;;;;;21.00;41.30;;;;;;1501142;77;633;-57
2023/08/08 08:24:26;;;;;;;;;;;21.00;41.40;;;;;;1492461;78;687;-56
2023/08/08 08:26:28;;;;;;;;;;;20.90;41.40;;;;;;1502634;78;790;-53
2023/08/08 08:28:29;;;;;;;;;;;21.00;41.30;;;;;;1499150;77;1154;-55
2023/08/08 08:30:31;;;;;;;;;;;20.90;41.30;;;;;;1496260;77;1972;-56
2023/08/08 08:32:36;;;;;;;;;;;21.00;41.30;;;;;;1499555;78;816;-55
2023/08/08 08:34:38;;;;;;;;;;;20.90;41.40;;;;;;1510425;78;807;-54
2023/08/08 08:36:40;;;;;;;;;;;21.00;41.50;;;;;;1505317;78;786;-55
2023/08/08 08:38:42;;;;;;;;;;;21.00;41.40;;;;;;1495832;77;1194;-57
2023/08/08 08:40:45;;;;;;;;;;;21.00;41.50;;;;;;1493545;78;704;-55
2023/08/08 08:42:47;;;;;;;;;;;21.00;41.60;;;;;;1500141;78;809;-57
2023/08/08 08:44:49;;;;;;;;;;;21.00;41.50;;;;;;1516257;77;744;-55
2023/08/08 08:46:51;;;;;;;;;;;20.90;41.40;;;;;;1510815;77;824;-56
2023/08/08 08:48:55;;;;;;;;;;;20.90;41.40;;;;;;1506294;77;1158;-54
2023/08/08 08:50:59;;;;;;;;;;;20.90;41.50;;;;;;1502593;77;1912;-54
2023/08/08 08:53:01;;;;;;;;;;;21.00;41.50;;;;;;1494176;77;751;-57
2023/08/08 08:55:03;;;;;;;;;;;20.90;41.60;;;;;;1507391;78;868;-57
2023/08/08 08:57:05;;;;;;;;;;;21.00;41.60;;;;;;1512575;78;746;-57
2023/08/08 08:59:07;;;;;;;;;;;20.90;41.60;;;;;;1488122;77;1182;-55
2023/08/08 09:01:09;;;;;;;;;;;20.90;41.70;;;;;;1507739;77;736;-55
2023/08/08 09:03:11;;;;;;;;;;;20.90;41.70;;;;;;1508788;78;1560;-57
2023/08/08 09:05:13;;;;;;;;;;;20.90;41.60;;;;;;1501013;78;761;-56
2023/08/08 09:07:15;;;;;;;;;;;20.90;41.40;;;;;;1505192;78;793;-56
2023/08/08 09:09:17;;;;;;;;;;;20.90;41.50;;;;;;1497809;77;1165;-55
2023/08/08 09:11:19;;;;;;;;;;;20.90;41.50;;;;;;1495142;78;1934;-53
2023/08/08 09:13:22;;;;;;;;;;;20.90;41.40;;;;;;1483032;78;791;-56
2023/08/08 09:15:24;;;;;;;;;;;20.90;41.20;;;;;;1513500;77;782;-56
2023/08/08 09:17:26;;;;;;;;;;;20.80;41.00;;;;;;1511134;77;788;-56
2023/08/08 09:19:28;;;;;;;;;;;20.90;41.10;;;;;;1485237;78;1147;-56
2023/08/08 09:21:30;;;;;;;;;;;20.90;41.10;;;;;;1501215;77;718;-57
2023/08/08 09:23:32;;;;;;;;;;;20.90;41.20;;;;;;1496338;77;777;-56
2023/08/08 09:25:34;;;;;;;;;;;20.90;41.20;;;;;;1500938;78;782;-54
2023/08/08 09:27:36;;;;;;;;;;;20.90;41.30;;;;;;1499699;78;748;-55
2023/08/08 09:29:38;;;;;;;;;;;20.90;41.30;;;;;;1510651;77;1156;-56
2023/08/08 09:31:40;;;;;;;;;;;20.90;41.40;;;;;;1498273;78;1922;-55
2023/08/08 09:33:43;;;;;;;;;;;20.90;40.80;;;;;;1502120;78;796;-55
2023/08/08 09:35:45;;;;;;;;;;;20.90;40.70;;;;;;1511847;78;826;-56
2023/08/08 09:37:47;;;;;;;;;;;20.90;40.70;;;;;;1502103;78;738;-55
2023/08/08 09:39:50;;;;;;;;;;;20.90;40.50;;;;;;1495959;77;1145;-55
2023/08/08 09:41:52;;;;;;;;;;;20.90;40.50;;;;;;1496267;78;968;-58
2023/08/08 09:43:54;;;;;;;;;;;20.90;40.20;;;;;;1497817;77;758;-56
2023/08/08 09:45:56;;;;;;;;;;;20.90;40.00;;;;;;1498229;78;774;-56
2023/08/08 09:47:58;;;;;;;;;;;20.90;40.00;;;;;;1512146;77;796;-57
2023/08/08 09:50:00;;;;;;;;;;;20.90;40.30;;;;;;1517333;76;1213;-56
2023/08/08 09:52:02;;;;;;;;;;;20.90;40.20;;;;;;1537273;76;1937;-55
2023/08/08 09:54:06;;;;;;;;;;;20.80;39.60;;;;;;1536660;76;947;-56
2023/08/08 09:56:08;;;;;;;;;;;20.80;39.20;;;;;;1536434;76;761;-56
2023/08/08 09:58:10;;;;;;;;;;;20.80;39.20;;;;;;1506365;77;724;-56
2023/08/08 10:00:15;;;;;;;;;;;20.80;38.90;;;;;;1500136;77;1599;-57
2023/08/08 10:02:15;;;;;;;;;;;20.80;39.20;;;;;;1503861;77;1597;-57
2023/08/08 10:04:17;;;;;;;;;;;20.80;39.10;;;;;;1518057;77;686;-55
2023/08/08 10:06:19;;;;;;;;;;;20.80;39.20;;;;;;1506305;77;716;-56
2023/08/08 10:08:21;;;;;;;;;;;20.80;39.10;;;;;;1506058;77;1202;-55
2023/08/08 10:10:23;;;;;;;;;;;20.90;39.20;;;;;;1524672;76;793;-57
2023/08/08 10:12:26;;;;;;;;;;;20.80;39.20;;;;;;1494042;77;1955;-54
2023/08/08 10:14:32;;;;;;;;;;;21.20;39.70;;;;;;1509481;76;825;-55
2023/08/08 10:16:34;;;;;;;;;;;20.90;39.50;;;;;;1525929;77;1513;-57
2023/08/08 10:18:36;;;;;;;;;;;20.80;39.20;;;;;;1508356;76;1142;-55
2023/08/08 10:20:38;;;;;;;;;;;20.80;39.30;;;;;;1521982;77;811;-53
2023/08/08 10:22:43;;;;;;;;;;;20.80;38.80;;;;;;1517680;76;613;-57
2023/08/08 10:24:47;;;;;;;;;;;20.80;38.60;;;;;;1524700;77;745;-54
2023/08/08 10:26:53;;;;;;;;;;;20.80;38.70;;;;;;1501175;77;776;-56
2023/08/08 10:28:58;;;;;;;;;;;20.80;38.60;;;;;;1508203;76;1118;-56
2023/08/08 10:31:01;;;;;;;;;;;20.80;38.40;;;;;;1514432;76;728;-57
2023/08/08 10:33:04;;;;;;;;;;;20.90;38.70;;;;;;1514255;77;1924;-56
2023/08/08 10:35:06;;;;;;;;;;;20.80;38.80;;;;;;1517647;77;727;-56
2023/08/08 10:37:15;;;;;;;;;;;20.80;38.80;;;;;;1510984;77;711;-58
2023/08/08 10:39:18;;;;;;;;;;;20.80;39.00;;;;;;1506758;76;1189;-54
2023/08/08 10:41:20;;;;;;;;;;;20.80;39.00;;;;;;1514380;77;747;-56
2023/08/08 10:43:23;;;;;;;;;;;20.80;39.10;;;;;;1513669;76;744;-56
2023/08/08 10:45:27;;;;;;;;;;;20.80;39.00;;;;;;1524825;77;1134;-56
2023/08/08 10:47:32;;;;;;;;;;;20.90;39.10;;;;;;1530176;76;1770;-57
2023/08/08 10:49:34;;;;;;;;;;;20.80;39.10;;;;;;1513756;76;1137;-55
2023/08/08 10:51:38;;;;;;;;;;;20.90;39.00;;;;;;1513169;76;1937;-55
2023/08/08 10:53:40;;;;;;;;;;;20.90;38.90;;;;;;1502385;77;1770;-55
2023/08/08 10:55:44;;;;;;;;;;;20.80;38.90;;;;;;1522184;77;1303;-55
2023/08/08 10:57:47;;;;;;;;;;;20.90;38.90;;;;;;1518468;76;796;-57
2023/08/08 10:59:49;;;;;;;;;;;20.90;39.00;;;;;;1522062;76;1151;-55
2023/08/08 11:01:52;;;;;;;;;;;20.80;39.00;;;;;;1513721;77;789;-55
2023/08/08 11:03:54;;;;;;;;;;;20.90;39.10;;;;;;1501412;77;718;-53
2023/08/08 11:05:56;;;;;;;;;;;21.00;39.20;;;;;;1511202;77;805;-55
2023/08/08 11:07:58;;;;;;;;;;;20.90;39.40;;;;;;1526708;76;967;-55
2023/08/08 11:10:01;;;;;;;;;;;20.90;39.40;;;;;;1517924;77;1152;-56
2023/08/08 11:12:03;;;;;;;;;;;20.90;39.40;;;;;;1523182;76;1921;-57
2023/08/08 11:14:11;;;;;;;;;;;20.90;39.00;;;;;;1514806;77;728;-57
2023/08/08 11:16:15;;;;;;;;;;;20.90;39.40;;;;;;1515733;77;742;-57
2023/08/08 11:18:17;;;;;;;;;;;20.90;39.30;;;;;;1523763;76;689;-55
2023/08/08 11:20:19;;;;;;;;;;;20.90;39.50;;;;;;1522622;77;1166;-55
2023/08/08 11:22:25;;;;;;;;;;;20.90;38.90;;;;;;1513906;76;794;-55
2023/08/08 11:24:28;;;;;;;;;;;20.90;38.90;;;;;;1522322;77;769;-58
2023/08/08 11:26:31;;;;;;;;;;;20.90;39.10;;;;;;1522421;76;720;-57
2023/08/08 11:28:33;;;;;;;;;;;20.90;38.60;;;;;;1515342;76;2003;-55
2023/08/08 11:30:37;;;;;;;;;;;20.90;38.50;;;;;;1516650;76;807;-53
2023/08/08 11:32:38;;;;;;;;;;;20.90;38.60;;;;;;1524096;77;1930;-56
2023/08/08 11:34:40;;;;;;;;;;;20.90;37.40;;;;;;1523211;77;935;-55
2023/08/08 11:36:42;;;;;;;;;;;20.90;37.40;;;;;;1508370;77;801;-55
2023/08/08 11:38:44;;;;;;;;;;;20.90;37.60;;;;;;1515453;76;1082;-55
2023/08/08 11:40:46;;;;;;;;;;;20.90;37.60;;;;;;1518314;76;675;-55
2023/08/08 11:42:50;;;;;;;;;;;20.90;37.10;;;;;;1508531;76;797;-54
2023/08/08 11:44:52;;;;;;;;;;;20.90;37.30;;;;;;1508473;77;1503;-56
2023/08/08 11:46:54;;;;;;;;;;;20.90;37.60;;;;;;1524745;76;799;-57
2023/08/08 11:48:57;;;;;;;;;;;20.90;37.80;;;;;;1520924;76;1184;-55
2023/08/08 11:50:59;;;;;;;;;;;20.90;37.60;;;;;;1511449;76;1701;-53
2023/08/08 11:53:01;;;;;;;;;;;20.90;37.20;;;;;;1521977;77;1940;-54
2023/08/08 11:55:03;;;;;;;;;;;20.90;37.20;;;;;;1522108;77;693;-53
2023/08/08 11:57:05;;;;;;;;;;;20.80;37.70;;;;;;1523585;76;978;-54
2023/08/08 11:59:07;;;;;;;;;;;20.90;37.90;;;;;;1527597;77;1155;-56
2023/08/08 12:01:10;;;;;;;;;;;20.90;37.80;;;;;;1520686;76;755;-55
2023/08/08 12:03:14;;;;;;;;;;;20.80;37.70;;;;;;1512007;77;678;-54
2023/08/08 12:05:21;;;;;;;;;;;20.90;38.10;;;;;;1523657;77;1633;-55
2023/08/08 12:07:23;;;;;;;;;;;20.90;38.30;;;;;;1516981;77;1607;-57
2023/08/08 12:09:27;;;;;;;;;;;20.90;38.50;;;;;;1505213;76;1275;-55